Time;durP1;ratioP1;P1;durP2;ratioP2;P2;SDS_P1;SDS_P2;PMS_P1;PMS_P2;Temp;Humidity;BMP_temperature;BMP_pressure;BME280_temperature;BME280_humidity;BME280_pressure;Samples;Min_cycle;Max_cycle;Signal;HPM_P1;HPM_P2
2023/09/06 00:00:34;;;;;;;;;;;17.70;91.20;;;;;;5096269;28;20322;-66
2023/09/06 00:03:01;;;;;;;;;;;17.80;91.00;;;;;;5096358;28;20356;-65
2023/09/06 00:05:29;;;;;;;;;;;17.80;90.90;;;;;;5114638;28;20046;-66
2023/09/06 00:07:56;;;;;;;;;;;17.90;90.90;;;;;;5114284;28;20364;-65
2023/09/06 00:10:23;;;;;;;;;;;17.90;91.20;;;;;;5114359;28;20011;-66
2023/09/06 00:12:49;;;;;;;;;;;17.90;90.90;;;;;;5114509;28;19911;-66
2023/09/06 00:15:18;;;;;;;;;;;18.00;91.30;;;;;;5114565;28;19915;-67
2023/09/06 00:17:45;;;;;;;;;;;18.10;91.10;;;;;;5114615;28;19915;-66
2023/09/06 00:20:21;;;;;;;;;;;18.20;91.10;;;;;;5114433;28;19990;-67
2023/09/06 00:22:58;;;;;;;;;;;18.20;91.10;;;;;;5114477;28;19908;-66
2023/09/06 00:25:25;;;;;;;;;;;18.30;91.00;;;;;;5114455;28;19946;-65
2023/09/06 00:27:52;;;;;;;;;;;18.40;90.50;;;;;;5113987;28;19912;-65
2023/09/06 00:30:19;;;;;;;;;;;18.40;90.40;;;;;;5113875;28;19915;-65
2023/09/06 00:32:47;;;;;;;;;;;18.50;90.40;;;;;;5113804;28;20364;-66
2023/09/06 00:35:16;;;;;;;;;;;18.60;90.10;;;;;;5114108;28;20372;-65
2023/09/06 00:37:43;;;;;;;;;;;18.60;89.90;;;;;;5113833;28;19912;-65
2023/09/06 00:40:17;;;;;;;;;;;18.70;89.80;;;;;;5113913;28;19920;-66
2023/09/06 00:42:46;;;;;;;;;;;18.70;88.60;;;;;;5113962;28;19908;-65
2023/09/06 00:45:13;;;;;;;;;;;18.80;88.50;;;;;;5113909;28;20369;-66
2023/09/06 00:47:42;;;;;;;;;;;18.80;88.60;;;;;;5095273;28;19920;-67
2023/09/06 00:50:11;;;;;;;;;;;19.00;88.90;;;;;;5113630;28;19954;-67
2023/09/06 00:52:39;;;;;;;;;;;19.20;88.50;;;;;;5113406;28;20402;-66
2023/09/06 00:55:06;;;;;;;;;;;19.30;88.30;;;;;;5113865;28;20338;-66
2023/09/06 00:57:33;;;;;;;;;;;19.50;87.60;;;;;;5113487;28;19908;-66
2023/09/06 01:00:00;;;;;;;;;;;19.50;87.30;;;;;;5113642;28;19919;-66
2023/09/06 01:02:26;;;;;;;;;;;19.60;86.20;;;;;;5113688;28;19908;-66
2023/09/06 01:04:53;;;;;;;;;;;19.70;86.10;;;;;;5113616;28;19911;-66
2023/09/06 01:07:25;;;;;;;;;;;19.80;85.60;;;;;;5113437;28;20024;-66
2023/09/06 01:09:52;;;;;;;;;;;19.80;85.10;;;;;;5113401;28;19916;-66
2023/09/06 01:12:18;;;;;;;;;;;20.00;84.50;;;;;;5113676;28;19911;-66
2023/09/06 01:14:45;;;;;;;;;;;19.90;83.80;;;;;;5113498;28;19947;-69
2023/09/06 01:17:15;;;;;;;;;;;20.00;85.30;;;;;;5113473;28;20360;-65
2023/09/06 01:19:44;;;;;;;;;;;20.10;85.90;;;;;;5113297;28;19960;-67
2023/09/06 01:22:20;;;;;;;;;;;20.30;86.90;;;;;;5113149;28;19908;-65
2023/09/06 01:24:47;;;;;;;;;;;20.50;84.70;;;;;;5113196;28;19915;-66
2023/09/06 01:27:14;;;;;;;;;;;20.50;83.40;;;;;;5113325;28;19912;-66
2023/09/06 01:29:41;;;;;;;;;;;20.60;85.30;;;;;;5113201;28;19946;-66
2023/09/06 01:32:07;;;;;;;;;;;20.80;85.10;;;;;;5113531;28;19951;-65
2023/09/06 01:34:34;;;;;;;;;;;21.10;85.10;;;;;;5113145;28;19915;-70
2023/09/06 01:37:01;;;;;;;;;;;21.30;84.00;;;;;;5112976;28;19908;-68
2023/09/06 01:39:27;;;;;;;;;;;21.50;84.30;;;;;;5113086;28;20343;-69
2023/09/06 01:41:54;;;;;;;;;;;21.70;82.50;;;;;;5113430;28;19914;-66
2023/09/06 01:44:20;;;;;;;;;;;21.70;82.20;;;;;;5113238;28;20267;-71
2023/09/06 01:46:47;;;;;;;;;;;21.70;81.90;;;;;;5116537;28;19974;-66
2023/09/06 01:49:14;;;;;;;;;;;21.90;82.50;;;;;;5117406;28;19968;-66
2023/09/06 01:51:40;;;;;;;;;;;22.00;79.70;;;;;;5117448;28;20471;-66
2023/09/06 01:54:10;;;;;;;;;;;22.10;79.00;;;;;;5117404;28;19908;-65
2023/09/06 01:56:36;;;;;;;;;;;22.20;78.70;;;;;;5117000;28;19952;-65
2023/09/06 01:59:03;;;;;;;;;;;22.30;79.00;;;;;;5117269;28;19953;-66
2023/09/06 02:01:30;;;;;;;;;;;22.40;77.10;;;;;;5117163;28;19908;-66
2023/09/06 02:03:58;;;;;;;;;;;22.50;78.40;;;;;;5116904;28;20489;-66
2023/09/06 02:06:25;;;;;;;;;;;22.60;78.80;;;;;;5116864;28;19996;-67
2023/09/06 02:08:52;;;;;;;;;;;22.80;78.40;;;;;;5116858;28;19916;-64
2023/09/06 02:11:20;;;;;;;;;;;22.90;79.00;;;;;;5116873;28;19907;-70
2023/09/06 02:13:47;;;;;;;;;;;23.20;78.80;;;;;;5116720;28;19965;-65
2023/09/06 02:16:14;;;;;;;;;;;23.20;76.70;;;;;;5117074;28;19908;-65
2023/09/06 02:18:40;;;;;;;;;;;23.10;75.80;;;;;;5116728;28;19915;-67
2023/09/06 02:21:07;;;;;;;;;;;23.10;76.60;;;;;;5116973;28;20133;-66
2023/09/06 02:23:35;;;;;;;;;;;23.20;77.70;;;;;;5116878;28;19908;-66
2023/09/06 02:26:03;;;;;;;;;;;23.50;78.30;;;;;;5098224;28;19916;-70
2023/09/06 02:28:29;;;;;;;;;;;23.50;76.40;;;;;;5116320;28;20010;-66
2023/09/06 02:30:56;;;;;;;;;;;23.60;75.20;;;;;;5116783;28;20002;-66
2023/09/06 02:33:22;;;;;;;;;;;23.60;76.00;;;;;;5116570;28;19951;-67
2023/09/06 02:35:49;;;;;;;;;;;23.90;76.30;;;;;;5116422;28;19947;-66
2023/09/06 02:38:16;;;;;;;;;;;24.40;75.80;;;;;;5116326;28;19916;-68
2023/09/06 02:40:42;;;;;;;;;;;24.70;76.10;;;;;;5116423;28;19907;-67
2023/09/06 02:43:13;;;;;;;;;;;24.70;74.20;;;;;;5116395;28;19912;-69
2023/09/06 02:45:40;;;;;;;;;;;25.30;73.70;;;;;;5116345;28;19908;-65
2023/09/06 02:48:07;;;;;;;;;;;26.00;72.20;;;;;;5116547;28;19977;-65
2023/09/06 02:50:35;;;;;;;;;;;27.10;70.80;;;;;;5116167;28;19923;-66
2023/09/06 02:53:03;;;;;;;;;;;28.30;68.40;;;;;;5115985;28;20276;-66
2023/09/06 02:55:35;;;;;;;;;;;29.30;66.20;;;;;;5115646;28;20374;-68
2023/09/06 02:58:01;;;;;;;;;;;29.20;65.20;;;;;;5115990;28;19931;-65
2023/09/06 03:00:29;;;;;;;;;;;30.30;64.70;;;;;;5116103;28;19908;-68
2023/09/06 03:03:04;;;;;;;;;;;31.30;63.30;;;;;;5116206;28;19952;-66
2023/09/06 03:05:32;;;;;;;;;;;31.40;61.80;;;;;;5098486;28;19914;-67
2023/09/06 03:07:58;;;;;;;;;;;31.60;60.10;;;;;;5115594;28;19908;-65
2023/09/06 03:10:25;;;;;;;;;;;32.30;62.00;;;;;;5115658;28;19923;-66
2023/09/06 03:12:58;;;;;;;;;;;32.30;59.60;;;;;;5115596;28;20269;-66
2023/09/06 03:15:28;;;;;;;;;;;33.10;59.60;;;;;;5115499;28;19915;-65
2023/09/06 03:17:58;;;;;;;;;;;33.50;57.60;;;;;;5115461;28;19908;-65
2023/09/06 03:20:42;;;;;;;;;;;32.60;57.70;;;;;;5115362;28;20053;-65
2023/09/06 03:23:19;;;;;;;;;;;32.90;58.10;;;;;;5115287;28;19912;-66
2023/09/06 03:25:51;;;;;;;;;;;33.10;57.70;;;;;;5115374;28;20016;-66
2023/09/06 03:28:18;;;;;;;;;;;33.40;56.40;;;;;;5115034;28;20273;-67
2023/09/06 03:30:45;;;;;;;;;;;33.10;57.20;;;;;;5115405;28;20024;-66
2023/09/06 03:33:12;;;;;;;;;;;32.80;56.40;;;;;;5115029;28;20261;-71
2023/09/06 03:35:39;;;;;;;;;;;32.90;57.40;;;;;;5115194;28;19907;-67
2023/09/06 03:38:26;;;;;;;;;;;34.00;55.50;;;;;;5114601;28;19991;-68
2023/09/06 03:40:52;;;;;;;;;;;34.40;55.40;;;;;;5114409;28;19914;-66
2023/09/06 03:43:30;;;;;;;;;;;34.50;54.60;;;;;;5115198;28;19915;-71
2023/09/06 03:45:58;;;;;;;;;;;34.30;55.10;;;;;;5114529;28;19912;-69
2023/09/06 03:48:27;;;;;;;;;;;34.70;54.40;;;;;;5114268;28;19912;-70
2023/09/06 03:50:58;;;;;;;;;;;33.80;55.80;;;;;;5114607;28;19968;-67
2023/09/06 03:53:27;;;;;;;;;;;34.20;55.30;;;;;;5114910;28;19918;-69
2023/09/06 03:55:57;;;;;;;;;;;33.30;54.80;;;;;;5114720;28;19999;-67
2023/09/06 03:58:24;;;;;;;;;;;33.30;56.10;;;;;;5114446;28;20213;-67
2023/09/06 04:00:52;;;;;;;;;;;32.80;55.30;;;;;;5114716;28;19907;-66
2023/09/06 04:03:20;;;;;;;;;;;33.00;55.70;;;;;;5114698;28;20280;-65
2023/09/06 04:05:46;;;;;;;;;;;33.60;55.40;;;;;;5114430;28;19960;-66
2023/09/06 04:08:19;;;;;;;;;;;33.20;54.20;;;;;;5113574;28;19942;-69
2023/09/06 04:10:46;;;;;;;;;;;32.10;56.00;;;;;;5114384;28;19920;-67
2023/09/06 04:13:14;;;;;;;;;;;31.80;55.50;;;;;;5114481;28;19950;-67
2023/09/06 04:15:42;;;;;;;;;;;32.20;55.80;;;;;;5114492;28;20006;-66
2023/09/06 04:18:12;;;;;;;;;;;33.50;55.40;;;;;;5114525;28;20379;-66
2023/09/06 04:20:40;;;;;;;;;;;34.10;53.70;;;;;;5114474;28;19916;-66
2023/09/06 04:23:08;;;;;;;;;;;33.00;54.90;;;;;;5114321;28;20010;-66
2023/09/06 04:25:41;;;;;;;;;;;32.40;55.60;;;;;;5114351;28;19941;-66
2023/09/06 04:28:08;;;;;;;;;;;33.10;55.40;;;;;;5113916;28;19908;-66
2023/09/06 04:30:36;;;;;;;;;;;32.90;55.70;;;;;;5114283;28;19923;-66
2023/09/06 04:33:05;;;;;;;;;;;32.80;55.00;;;;;;5114321;28;19915;-66
2023/09/06 04:35:44;;;;;;;;;;;32.30;56.20;;;;;;5114014;28;19915;-66
2023/09/06 04:38:17;;;;;;;;;;;32.70;55.50;;;;;;5114074;28;20272;-66
2023/09/06 04:40:44;;;;;;;;;;;31.60;56.20;;;;;;5114149;28;19908;-67
2023/09/06 04:43:11;;;;;;;;;;;31.40;55.80;;;;;;5113882;28;19955;-66
2023/09/06 04:45:38;;;;;;;;;;;32.00;56.40;;;;;;5113697;28;20353;-66
2023/09/06 04:48:11;;;;;;;;;;;33.10;54.80;;;;;;5113626;28;19916;-68
2023/09/06 04:50:43;;;;;;;;;;;33.50;54.40;;;;;;5113753;28;19922;-66
2023/09/06 04:53:10;;;;;;;;;;;34.20;53.50;;;;;;5113813;28;19911;-67
2023/09/06 04:55:37;;;;;;;;;;;34.30;54.20;;;;;;5114028;28;19912;-68
2023/09/06 04:58:04;;;;;;;;;;;34.30;53.40;;;;;;5113799;28;19908;-67
2023/09/06 05:00:33;;;;;;;;;;;33.00;54.70;;;;;;5113507;28;19915;-67
2023/09/06 05:03:03;;;;;;;;;;;33.30;55.30;;;;;;5113738;28;19912;-67
2023/09/06 05:05:29;;;;;;;;;;;34.40;53.70;;;;;;5113548;28;19925;-71
2023/09/06 05:07:56;;;;;;;;;;;34.60;53.20;;;;;;5113472;28;19953;-66
2023/09/06 05:10:23;;;;;;;;;;;34.60;54.10;;;;;;5113462;28;20257;-66
2023/09/06 05:12:49;;;;;;;;;;;33.90;54.60;;;;;;5113502;28;19911;-67
2023/09/06 05:15:16;;;;;;;;;;;33.60;54.40;;;;;;5113252;28;20053;-68
2023/09/06 05:17:42;;;;;;;;;;;32.20;55.00;;;;;;5113068;28;20364;-67
2023/09/06 05:20:26;;;;;;;;;;;31.00;57.40;;;;;;5112751;28;20000;-67
2023/09/06 05:22:53;;;;;;;;;;;30.20;58.30;;;;;;5112269;28;19962;-67
2023/09/06 05:25:20;;;;;;;;;;;30.00;58.40;;;;;;5112429;28;19907;-67
2023/09/06 05:27:47;;;;;;;;;;;30.30;59.30;;;;;;5112528;28;19962;-68
2023/09/06 05:30:14;;;;;;;;;;;30.20;58.80;;;;;;5112856;28;19915;-69
2023/09/06 05:32:41;;;;;;;;;;;30.40;58.30;;;;;;5090166;28;20028;-68
2023/09/06 05:35:08;;;;;;;;;;;31.10;57.80;;;;;;5111043;28;20426;-68
2023/09/06 05:37:34;;;;;;;;;;;31.60;57.30;;;;;;5118417;28;19915;-67
2023/09/06 05:40:04;;;;;;;;;;;32.20;56.10;;;;;;5132960;28;19922;-68
2023/09/06 05:42:31;;;;;;;;;;;32.10;56.50;;;;;;5117852;28;19943;-67
2023/09/06 05:44:58;;;;;;;;;;;32.30;56.30;;;;;;5112307;28;19916;-66
2023/09/06 05:47:24;;;;;;;;;;;32.80;56.20;;;;;;5112039;28;19924;-69
2023/09/06 05:49:57;;;;;;;;;;;33.00;55.70;;;;;;5112468;28;19915;-70
2023/09/06 05:52:24;;;;;;;;;;;32.90;55.80;;;;;;5106720;28;20002;-65
2023/09/06 05:54:51;;;;;;;;;;;32.90;55.70;;;;;;5112279;28;19908;-69
2023/09/06 05:57:18;;;;;;;;;;;32.20;56.40;;;;;;5112059;28;19920;-71
2023/09/06 05:59:45;;;;;;;;;;;31.90;56.70;;;;;;5112249;28;19915;-66
2023/09/06 06:02:12;;;;;;;;;;;31.40;57.70;;;;;;5106666;28;19944;-69
2023/09/06 06:04:39;;;;;;;;;;;31.40;57.90;;;;;;5112467;28;19954;-69
2023/09/06 06:07:06;;;;;;;;;;;31.10;58.00;;;;;;5112355;28;19946;-71
2023/09/06 06:09:33;;;;;;;;;;;31.40;58.30;;;;;;5111843;28;19919;-69
2023/09/06 06:12:03;;;;;;;;;;;30.90;58.50;;;;;;5106284;28;19934;-70
2023/09/06 06:14:30;;;;;;;;;;;31.00;58.90;;;;;;5132965;28;19912;-70
2023/09/06 06:17:00;;;;;;;;;;;31.00;58.70;;;;;;5116379;28;19916;-70
2023/09/06 06:19:26;;;;;;;;;;;29.80;60.10;;;;;;5073202;28;20276;-70
2023/09/06 06:21:53;;;;;;;;;;;29.70;60.00;;;;;;5096460;28;19912;-69
2023/09/06 06:24:20;;;;;;;;;;;29.80;60.40;;;;;;5096490;28;19908;-69
2023/09/06 06:26:49;;;;;;;;;;;29.60;60.70;;;;;;5096662;28;19919;-72
2023/09/06 06:29:16;;;;;;;;;;;29.20;61.70;;;;;;5091001;28;20357;-69
2023/09/06 06:31:44;;;;;;;;;;;29.50;61.20;;;;;;5096190;28;20319;-66
2023/09/06 06:34:13;;;;;;;;;;;29.00;62.00;;;;;;5095360;28;19908;-69
2023/09/06 06:36:41;;;;;;;;;;;29.00;62.20;;;;;;5099962;27;19915;-67
2023/09/06 06:39:10;;;;;;;;;;;28.80;62.20;;;;;;5094997;28;19916;-67
2023/09/06 06:41:36;;;;;;;;;;;28.80;61.90;;;;;;5097631;27;19957;-69
2023/09/06 06:44:03;;;;;;;;;;;28.40;62.70;;;;;;5095076;28;19912;-66
2023/09/06 06:46:31;;;;;;;;;;;27.90;63.90;;;;;;5098925;27;19927;-70
2023/09/06 06:48:58;;;;;;;;;;;27.50;64.50;;;;;;5097359;28;20002;-69
2023/09/06 06:51:26;;;;;;;;;;;26.70;65.00;;;;;;5098409;27;19934;-71
2023/09/06 06:53:52;;;;;;;;;;;25.40;67.10;;;;;;5105223;28;19953;-70
2023/09/06 06:56:21;;;;;;;;;;;24.50;69.40;;;;;;5105065;27;19912;-70
2023/09/06 06:58:51;;;;;;;;;;;24.00;70.70;;;;;;5100130;27;19915;-69
2023/09/06 07:01:18;;;;;;;;;;;23.20;73.00;;;;;;5078544;28;19915;-71
2023/09/06 07:03:45;;;;;;;;;;;22.40;74.90;;;;;;5106905;28;19915;-68
2023/09/06 07:06:13;;;;;;;;;;;21.40;77.30;;;;;;5104266;28;20003;-69
2023/09/06 07:08:40;;;;;;;;;;;21.00;78.80;;;;;;5097889;28;19998;-71
2023/09/06 07:11:07;;;;;;;;;;;20.60;80.00;;;;;;5095700;28;20384;-70
2023/09/06 07:13:34;;;;;;;;;;;20.30;81.50;;;;;;5107952;28;20019;-69
2023/09/06 07:16:01;;;;;;;;;;;20.10;82.90;;;;;;5094222;28;19912;-70
2023/09/06 07:18:28;;;;;;;;;;;19.90;83.80;;;;;;5099550;28;19935;-70
2023/09/06 07:20:55;;;;;;;;;;;19.70;84.80;;;;;;5094108;28;19962;-69
2023/09/06 07:23:21;;;;;;;;;;;19.50;86.20;;;;;;5107880;28;20284;-69
2023/09/06 07:25:48;;;;;;;;;;;19.20;87.30;;;;;;5093973;28;19908;-71
2023/09/06 07:28:15;;;;;;;;;;;19.10;88.30;;;;;;5098975;28;19913;-70
2023/09/06 07:30:44;;;;;;;;;;;19.00;89.10;;;;;;5094054;28;19920;-69
2023/09/06 07:33:11;;;;;;;;;;;18.90;90.20;;;;;;5107450;28;19918;-68
2023/09/06 07:35:37;;;;;;;;;;;18.80;90.60;;;;;;5094061;28;20319;-69
2023/09/06 07:38:04;;;;;;;;;;;18.70;91.10;;;;;;5098979;28;19912;-69
2023/09/06 07:40:30;;;;;;;;;;;18.60;91.20;;;;;;5094031;28;19943;-68
2023/09/06 07:42:57;;;;;;;;;;;18.50;91.70;;;;;;5106861;27;19915;-69
2023/09/06 07:45:24;;;;;;;;;;;18.40;92.40;;;;;;5096544;28;20422;-67
2023/09/06 07:47:53;;;;;;;;;;;18.30;92.90;;;;;;5098463;28;20384;-67
2023/09/06 07:50:20;;;;;;;;;;;18.20;93.40;;;;;;5093986;28;20352;-68
2023/09/06 07:52:46;;;;;;;;;;;18.10;93.90;;;;;;5104565;28;20368;-66
2023/09/06 07:55:13;;;;;;;;;;;18.10;94.50;;;;;;5097662;28;19930;-69
2023/09/06 07:57:40;;;;;;;;;;;18.00;95.00;;;;;;5098617;27;19916;-67
2023/09/06 08:00:07;;;;;;;;;;;17.90;95.50;;;;;;5093682;28;19939;-68
2023/09/06 08:02:34;;;;;;;;;;;17.90;96.00;;;;;;5101964;28;19911;-69
2023/09/06 08:05:00;;;;;;;;;;;17.80;96.20;;;;;;5097752;28;20441;-69
2023/09/06 08:07:27;;;;;;;;;;;17.80;96.70;;;;;;5098067;28;19911;-68
2023/09/06 08:09:53;;;;;;;;;;;17.90;97.20;;;;;;5093278;28;19947;-69
2023/09/06 08:12:20;;;;;;;;;;;17.80;97.50;;;;;;5099344;28;19962;-69
2023/09/06 08:14:47;;;;;;;;;;;17.80;97.90;;;;;;5100182;28;20390;-70
2023/09/06 08:17:13;;;;;;;;;;;17.70;98.20;;;;;;5098199;28;19912;-70
2023/09/06 08:19:40;;;;;;;;;;;17.70;98.60;;;;;;5095705;28;19912;-70
2023/09/06 08:22:07;;;;;;;;;;;17.60;98.90;;;;;;5110151;27;19968;-68
2023/09/06 08:24:33;;;;;;;;;;;17.70;99.20;;;;;;5102631;28;19915;-70
2023/09/06 08:27:00;;;;;;;;;;;17.60;99.60;;;;;;5093744;28;19916;-66
2023/09/06 08:29:26;;;;;;;;;;;17.60;99.70;;;;;;5092402;28;20119;-69
2023/09/06 08:31:53;;;;;;;;;;;17.60;99.90;;;;;;5095481;27;19912;-67
2023/09/06 08:34:20;;;;;;;;;;;17.50;99.90;;;;;;5117554;27;19912;-68
2023/09/06 08:36:46;;;;;;;;;;;17.60;99.90;;;;;;5093232;28;19908;-68
2023/09/06 08:39:13;;;;;;;;;;;17.50;99.90;;;;;;5092473;28;19918;-70
2023/09/06 08:41:41;;;;;;;;;;;17.50;99.90;;;;;;5074392;28;20029;-68
2023/09/06 08:44:11;;;;;;;;;;;17.50;99.90;;;;;;5106757;28;20402;-68
2023/09/06 08:46:41;;;;;;;;;;;17.60;99.90;;;;;;5070677;28;19966;-66
2023/09/06 08:49:09;;;;;;;;;;;17.50;99.90;;;;;;5076927;28;20109;-69
2023/09/06 08:51:36;;;;;;;;;;;17.50;99.90;;;;;;5071061;28;20385;-70
2023/09/06 08:54:06;;;;;;;;;;;17.50;99.90;;;;;;5085633;28;20303;-68
2023/09/06 08:56:34;;;;;;;;;;;17.50;99.90;;;;;;5072161;28;19914;-70
2023/09/06 08:59:01;;;;;;;;;;;17.50;99.90;;;;;;5089144;28;20296;-68
2023/09/06 09:01:30;;;;;;;;;;;17.50;99.90;;;;;;5081974;28;19908;-71
2023/09/06 09:03:57;;;;;;;;;;;17.50;99.90;;;;;;5086281;28;19999;-71
2023/09/06 09:06:25;;;;;;;;;;;17.60;99.90;;;;;;5071849;28;20269;-69
2023/09/06 09:08:52;;;;;;;;;;;17.40;99.90;;;;;;5076565;28;20327;-70
2023/09/06 09:11:19;;;;;;;;;;;17.50;99.90;;;;;;5074314;28;19916;-67
2023/09/06 09:13:46;;;;;;;;;;;17.50;99.90;;;;;;5087437;28;19973;-67
2023/09/06 09:16:14;;;;;;;;;;;17.50;99.90;;;;;;5072041;28;19971;-65
2023/09/06 09:18:41;;;;;;;;;;;17.40;99.90;;;;;;5075618;28;20037;-73
2023/09/06 09:21:09;;;;;;;;;;;17.40;99.90;;;;;;5073064;28;19912;-66
2023/09/06 09:23:50;;;;;;;;;;;17.40;99.90;;;;;;5085060;28;19919;-70
2023/09/06 09:26:19;;;;;;;;;;;17.40;99.90;;;;;;5071977;28;19908;-66
2023/09/06 09:28:46;;;;;;;;;;;17.40;99.90;;;;;;5076717;28;19920;-68
2023/09/06 09:31:14;;;;;;;;;;;17.30;99.90;;;;;;5072557;28;19913;-66
2023/09/06 09:33:43;;;;;;;;;;;17.30;99.90;;;;;;5087995;28;19962;-69
2023/09/06 09:36:09;;;;;;;;;;;17.30;99.90;;;;;;5072095;28;20392;-67
2023/09/06 09:38:40;;;;;;;;;;;17.30;99.90;;;;;;5076881;28;20361;-68
2023/09/06 09:41:08;;;;;;;;;;;17.40;99.90;;;;;;5078449;28;19912;-66
2023/09/06 09:43:35;;;;;;;;;;;17.30;99.90;;;;;;5079904;28;19936;-70
2023/09/06 09:46:04;;;;;;;;;;;17.30;99.90;;;;;;5076168;28;19916;-71
2023/09/06 09:48:31;;;;;;;;;;;17.30;99.90;;;;;;5099216;28;19949;-67
2023/09/06 09:51:00;;;;;;;;;;;17.30;99.90;;;;;;5095471;28;19967;-70
2023/09/06 09:53:28;;;;;;;;;;;17.20;99.90;;;;;;5100984;28;19912;-69
2023/09/06 09:55:56;;;;;;;;;;;17.30;99.90;;;;;;5094468;28;19908;-72
2023/09/06 09:58:23;;;;;;;;;;;17.20;99.90;;;;;;5097024;28;19920;-67
2023/09/06 10:00:51;;;;;;;;;;;17.20;99.90;;;;;;5091616;28;19916;-71
2023/09/06 10:03:18;;;;;;;;;;;17.10;99.90;;;;;;5100547;28;19918;-70
2023/09/06 10:05:46;;;;;;;;;;;17.20;99.90;;;;;;5096923;28;19925;-71
2023/09/06 10:08:13;;;;;;;;;;;17.20;99.90;;;;;;5099764;28;19912;-69
2023/09/06 10:10:40;;;;;;;;;;;17.20;99.90;;;;;;5099222;28;19924;-67
2023/09/06 10:13:10;;;;;;;;;;;17.20;99.90;;;;;;5103212;28;19912;-68
2023/09/06 10:15:37;;;;;;;;;;;17.20;99.90;;;;;;5102627;28;19966;-66
2023/09/06 10:18:06;;;;;;;;;;;17.20;99.90;;;;;;5106744;27;19920;-71
2023/09/06 10:20:34;;;;;;;;;;;17.20;99.90;;;;;;5095281;28;20318;-66
2023/09/06 10:23:01;;;;;;;;;;;17.10;99.90;;;;;;5081160;28;19923;-69
2023/09/06 10:25:28;;;;;;;;;;;17.10;99.90;;;;;;5101076;28;19935;-67
2023/09/06 10:27:55;;;;;;;;;;;17.10;99.90;;;;;;5102033;27;19980;-64
2023/09/06 10:30:28;;;;;;;;;;;17.00;99.90;;;;;;5098220;28;20280;-66
2023/09/06 10:32:55;;;;;;;;;;;17.10;99.90;;;;;;5105984;28;19931;-67
2023/09/06 10:35:22;;;;;;;;;;;17.10;99.90;;;;;;5105263;28;19974;-68
2023/09/06 10:38:01;;;;;;;;;;;17.10;99.90;;;;;;5097065;27;19908;-68
2023/09/06 10:40:46;;;;;;;;;;;17.00;99.90;;;;;;5094499;28;20007;-68
2023/09/06 10:43:12;;;;;;;;;;;17.00;99.90;;;;;;5102998;28;19947;-65
2023/09/06 10:45:40;;;;;;;;;;;17.00;99.90;;;;;;5103353;28;20284;-65
2023/09/06 10:48:10;;;;;;;;;;;17.00;99.90;;;;;;5096221;28;20000;-67
2023/09/06 10:50:37;;;;;;;;;;;17.00;99.90;;;;;;5093995;28;21165;-66
2023/09/06 10:53:04;;;;;;;;;;;17.00;99.90;;;;;;5101746;28;19911;-64
2023/09/06 10:55:43;;;;;;;;;;;16.90;99.90;;;;;;5104414;28;19916;-65
2023/09/06 10:58:10;;;;;;;;;;;17.00;99.90;;;;;;5095770;28;19915;-65
2023/09/06 11:00:38;;;;;;;;;;;16.90;99.90;;;;;;5094619;28;19919;-68
2023/09/06 11:03:05;;;;;;;;;;;16.90;99.90;;;;;;5101081;27;19985;-65
2023/09/06 11:05:35;;;;;;;;;;;16.90;99.90;;;;;;5098288;28;20440;-67
2023/09/06 11:08:03;;;;;;;;;;;16.90;99.90;;;;;;5096594;28;19955;-66
2023/09/06 11:10:31;;;;;;;;;;;16.90;99.90;;;;;;5105508;28;19920;-68
2023/09/06 11:12:58;;;;;;;;;;;16.90;99.90;;;;;;5100625;27;20021;-67
2023/09/06 11:15:25;;;;;;;;;;;16.90;99.90;;;;;;5105628;28;19908;-65
2023/09/06 11:17:57;;;;;;;;;;;16.90;99.90;;;;;;5097489;28;20113;-65
2023/09/06 11:20:23;;;;;;;;;;;16.90;99.90;;;;;;5097897;28;20422;-67
2023/09/06 11:22:54;;;;;;;;;;;16.90;99.90;;;;;;5099994;28;19923;-65
2023/09/06 11:25:24;;;;;;;;;;;16.90;99.90;;;;;;5094434;28;20432;-66
2023/09/06 11:27:51;;;;;;;;;;;16.80;99.90;;;;;;5094220;28;19934;-67
2023/09/06 11:30:22;;;;;;;;;;;16.90;99.90;;;;;;5103976;28;19959;-68
2023/09/06 11:32:49;;;;;;;;;;;16.80;99.90;;;;;;5114372;28;19911;-65
2023/09/06 11:35:16;;;;;;;;;;;16.80;99.90;;;;;;5114104;28;19934;-67
2023/09/06 11:37:46;;;;;;;;;;;16.80;99.90;;;;;;5108490;28;19912;-65
2023/09/06 11:40:18;;;;;;;;;;;16.80;99.90;;;;;;5095089;28;19912;-67
2023/09/06 11:42:47;;;;;;;;;;;16.70;99.90;;;;;;5114100;28;20346;-66
2023/09/06 11:45:19;;;;;;;;;;;16.80;99.90;;;;;;5114736;28;19908;-67
2023/09/06 11:47:49;;;;;;;;;;;16.70;99.90;;;;;;5114206;28;20018;-66
2023/09/06 11:50:18;;;;;;;;;;;16.70;99.90;;;;;;5114015;28;19967;-66
2023/09/06 11:52:54;;;;;;;;;;;16.70;99.90;;;;;;5114761;28;19922;-68
2023/09/06 11:55:21;;;;;;;;;;;16.60;99.90;;;;;;5113674;28;19912;-66
2023/09/06 11:57:57;;;;;;;;;;;16.60;99.90;;;;;;5112215;28;20420;-71
2023/09/06 12:00:35;;;;;;;;;;;16.50;99.90;;;;;;5114390;28;19908;-66
2023/09/06 12:03:07;;;;;;;;;;;16.60;99.90;;;;;;5114007;28;19918;-66
2023/09/06 12:05:38;;;;;;;;;;;16.50;99.90;;;;;;5114238;28;19908;-65
2023/09/06 12:08:07;;;;;;;;;;;16.40;99.90;;;;;;5113524;28;19912;-66
2023/09/06 12:10:38;;;;;;;;;;;16.50;99.90;;;;;;5113754;28;19968;-64
2023/09/06 12:13:08;;;;;;;;;;;16.50;99.90;;;;;;5114277;28;20284;-67
2023/09/06 12:15:35;;;;;;;;;;;16.50;99.90;;;;;;5114142;28;19943;-67
2023/09/06 12:18:03;;;;;;;;;;;16.40;99.90;;;;;;5113856;28;19951;-67
2023/09/06 12:20:32;;;;;;;;;;;16.40;99.90;;;;;;5113958;28;19912;-65
2023/09/06 12:22:59;;;;;;;;;;;16.40;99.90;;;;;;5095543;28;20006;-65
2023/09/06 12:25:26;;;;;;;;;;;16.40;99.90;;;;;;5113850;28;19953;-65
2023/09/06 12:27:52;;;;;;;;;;;16.30;99.90;;;;;;5113770;28;19915;-65
2023/09/06 12:30:19;;;;;;;;;;;16.30;99.90;;;;;;5112756;28;20284;-68
2023/09/06 12:32:46;;;;;;;;;;;16.30;99.90;;;;;;5113681;28;19914;-64
2023/09/06 12:35:13;;;;;;;;;;;16.30;99.90;;;;;;5095390;28;19939;-67
2023/09/06 12:37:40;;;;;;;;;;;16.20;99.90;;;;;;5113049;28;20338;-65
2023/09/06 12:40:11;;;;;;;;;;;16.10;99.90;;;;;;5113130;28;19916;-67
2023/09/06 12:42:38;;;;;;;;;;;16.10;99.90;;;;;;5114098;28;20280;-70
2023/09/06 12:45:07;;;;;;;;;;;16.00;99.90;;;;;;5113522;28;20365;-66
2023/09/06 12:47:35;;;;;;;;;;;16.00;99.90;;;;;;5109938;28;19941;-65
2023/09/06 12:50:05;;;;;;;;;;;16.00;99.90;;;;;;5113089;28;19981;-66
2023/09/06 12:52:34;;;;;;;;;;;15.80;99.90;;;;;;5086540;28;20390;-66
2023/09/06 12:55:00;;;;;;;;;;;15.80;99.90;;;;;;5093085;28;19916;-68
2023/09/06 12:57:27;;;;;;;;;;;15.70;99.90;;;;;;5102700;28;20376;-70
2023/09/06 12:59:57;;;;;;;;;;;15.60;99.90;;;;;;5108025;28;19943;-66
2023/09/06 13:02:25;;;;;;;;;;;15.60;99.90;;;;;;5099445;28;19915;-67
2023/09/06 13:04:52;;;;;;;;;;;15.60;99.90;;;;;;5112212;28;19943;-70
2023/09/06 13:07:19;;;;;;;;;;;15.50;99.90;;;;;;5113355;28;19908;-68
2023/09/06 13:09:45;;;;;;;;;;;15.40;99.90;;;;;;5112576;28;19916;-69
2023/09/06 13:12:12;;;;;;;;;;;15.30;99.90;;;;;;5094500;28;20292;-68
2023/09/06 13:14:39;;;;;;;;;;;15.30;99.90;;;;;;5113360;28;20010;-68
2023/09/06 13:17:05;;;;;;;;;;;15.20;99.90;;;;;;5110220;28;19999;-69
2023/09/06 13:19:32;;;;;;;;;;;15.20;99.90;;;;;;5112129;28;19907;-68
2023/09/06 13:21:59;;;;;;;;;;;15.20;99.90;;;;;;5105347;28;19912;-69
2023/09/06 13:24:27;;;;;;;;;;;15.10;99.90;;;;;;5113061;28;20412;-66
2023/09/06 13:26:54;;;;;;;;;;;15.10;99.90;;;;;;5112566;28;20027;-68
2023/09/06 13:29:20;;;;;;;;;;;15.00;99.90;;;;;;5096603;28;20361;-69
2023/09/06 13:31:47;;;;;;;;;;;15.00;99.90;;;;;;5095363;28;19917;-66
2023/09/06 13:34:14;;;;;;;;;;;15.00;99.90;;;;;;5091768;28;19915;-70
2023/09/06 13:36:40;;;;;;;;;;;14.90;99.90;;;;;;5091426;28;19981;-70
2023/09/06 13:39:09;;;;;;;;;;;14.90;99.90;;;;;;5103752;28;19912;-67
2023/09/06 13:41:37;;;;;;;;;;;14.90;99.90;;;;;;5112059;28;19912;-69
2023/09/06 13:44:04;;;;;;;;;;;14.90;99.90;;;;;;5112266;28;19915;-67
2023/09/06 13:46:34;;;;;;;;;;;14.80;99.90;;;;;;5112787;28;19920;-65
2023/09/06 13:49:06;;;;;;;;;;;14.80;99.90;;;;;;5112394;28;19908;-68
2023/09/06 13:51:36;;;;;;;;;;;14.80;99.90;;;;;;5112266;28;19911;-66
2023/09/06 13:54:05;;;;;;;;;;;14.70;99.90;;;;;;5110923;28;20367;-69
2023/09/06 13:56:32;;;;;;;;;;;14.70;99.90;;;;;;5112919;28;19922;-66
2023/09/06 13:58:58;;;;;;;;;;;14.70;99.90;;;;;;5111589;28;19951;-65
2023/09/06 14:01:26;;;;;;;;;;;14.60;99.90;;;;;;5112729;28;19961;-67
2023/09/06 14:03:52;;;;;;;;;;;14.70;99.90;;;;;;5112577;28;19951;-67
2023/09/06 14:06:19;;;;;;;;;;;14.50;99.90;;;;;;5112609;28;19908;-65
2023/09/06 14:08:46;;;;;;;;;;;14.50;99.90;;;;;;5112280;28;19912;-67
2023/09/06 14:11:14;;;;;;;;;;;14.50;99.90;;;;;;5113048;28;19918;-66
2023/09/06 14:13:41;;;;;;;;;;;14.40;99.90;;;;;;5111682;28;20261;-68
2023/09/06 14:16:08;;;;;;;;;;;14.40;99.90;;;;;;5112745;28;19907;-65
2023/09/06 14:18:35;;;;;;;;;;;14.40;99.90;;;;;;5112560;28;19918;-66
2023/09/06 14:21:02;;;;;;;;;;;14.40;99.90;;;;;;5112929;28;19915;-66